Main page
METAR-TAF:

METAR-TAF

Airports :

Kuala Lumpur, Malaysia

Kuala Lumpur International Airport

latitude: 02-44N, longitude: 101-42E, elevation: 21 m

Current weather observation

The report was made 15 minutes ago, at 19:00 UTC
Wind 2 kt from variable directions
Temperature 26°C
Humidity 89%
Pressure 1008 hPa
Visibility: 8000 m
Few clouds at a height of 1700 ft, Cumulonimbus.
Scattered clouds at a height of 14000 ft
Broken clouds at a height of 28000 ft

METAR: WMKK 231900Z VRB02KT 8000 FEW017CB SCT140 BKN280 26/24 Q1008 NOSIG

Time: 03:15 (19:15 UTC)

Forecast

The report was made 2 hours and 15 minutes ago, at 17:00 UTC
Forecast valid from 23 at 18 UTC to 25 at 00 UTC
Wind 5 kt from the Northwest
Visibility 10 km or more
Few clouds at a height of 3000 ft
Temporary
from 24 at 07 UTC to 24 at 11 UTC
Visibility: 3000 m
Few clouds at a height of 800 ft
Few clouds at a height of 1500 ft, Cumulonimbus.
thunderstorm, rain

TAF: WMKK 231700Z 2318/2500 31005KT 9999 FEW030 TEMPO 2407/2411 3000 TSRA FEW008 FEW015CB

Weather observations and forecasts of more than 4000 airports (METAR and TAF reports).

The available stations are represented by yellow and red dots on the map.

Hover mouse over dot to see the name of the station.

Then click to see weather observations and forecasts.

To change the map : click on the green buttons with a black cross to zoom in, on the green button with a dash to zoom out, or on the green arrows for adjacent maps.


METAR-TAF: